sensor_id;sensor_type;location;lat;lon;timestamp;P1;durP1;ratioP1;P2;durP2;ratioP2
44120;SDS011;29783;52.504;13.478;2022-08-25T00:01:56;10.18;;;5.22;;
44120;SDS011;29783;52.504;13.478;2022-08-25T00:04:24;11.10;;;4.80;;
44120;SDS011;29783;52.504;13.478;2022-08-25T00:06:51;10.10;;;4.85;;
44120;SDS011;29783;52.504;13.478;2022-08-25T00:09:18;13.93;;;5.35;;
44120;SDS011;29783;52.504;13.478;2022-08-25T00:11:46;11.30;;;4.95;;
44120;SDS011;29783;52.504;13.478;2022-08-25T00:14:16;11.55;;;5.15;;
44120;SDS011;29783;52.504;13.478;2022-08-25T00:16:45;15.48;;;5.30;;
44120;SDS011;29783;52.504;13.478;2022-08-25T00:19:13;10.38;;;5.00;;
44120;SDS011;29783;52.504;13.478;2022-08-25T00:21:42;9.27;;;5.20;;
44120;SDS011;29783;52.504;13.478;2022-08-25T00:24:09;10.73;;;5.13;;
44120;SDS011;29783;52.504;13.478;2022-08-25T00:26:40;14.38;;;5.80;;
44120;SDS011;29783;52.504;13.478;2022-08-25T00:29:09;12.93;;;5.03;;
44120;SDS011;29783;52.504;13.478;2022-08-25T00:31:35;15.48;;;5.82;;
44120;SDS011;29783;52.504;13.478;2022-08-25T00:34:02;9.57;;;5.35;;
44120;SDS011;29783;52.504;13.478;2022-08-25T00:36:28;12.48;;;5.30;;
44120;SDS011;29783;52.504;13.478;2022-08-25T00:38:54;11.57;;;5.40;;
44120;SDS011;29783;52.504;13.478;2022-08-25T00:41:22;12.90;;;5.65;;
44120;SDS011;29783;52.504;13.478;2022-08-25T00:43:51;9.73;;;5.25;;
44120;SDS011;29783;52.504;13.478;2022-08-25T00:46:20;11.55;;;5.80;;
44120;SDS011;29783;52.504;13.478;2022-08-25T00:48:54;10.70;;;5.80;;
44120;SDS011;29783;52.504;13.478;2022-08-25T00:51:27;14.38;;;6.20;;
44120;SDS011;29783;52.504;13.478;2022-08-25T00:54:19;12.23;;;6.05;;
44120;SDS011;29783;52.504;13.478;2022-08-25T00:56:49;16.60;;;6.10;;
44120;SDS011;29783;52.504;13.478;2022-08-25T00:59:18;11.15;;;5.80;;
44120;SDS011;29783;52.504;13.478;2022-08-25T01:01:45;12.75;;;6.65;;
44120;SDS011;29783;52.504;13.478;2022-08-25T01:04:11;16.60;;;5.60;;
44120;SDS011;29783;52.504;13.478;2022-08-25T01:06:38;10.20;;;5.40;;
44120;SDS011;29783;52.504;13.478;2022-08-25T01:09:09;18.48;;;6.47;;
44120;SDS011;29783;52.504;13.478;2022-08-25T01:11:39;11.50;;;5.78;;
44120;SDS011;29783;52.504;13.478;2022-08-25T01:14:06;9.80;;;5.72;;
44120;SDS011;29783;52.504;13.478;2022-08-25T01:16:35;10.98;;;6.25;;
44120;SDS011;29783;52.504;13.478;2022-08-25T01:19:02;11.93;;;5.50;;
44120;SDS011;29783;52.504;13.478;2022-08-25T01:21:30;13.93;;;5.88;;
44120;SDS011;29783;52.504;13.478;2022-08-25T01:24:01;10.35;;;5.70;;
44120;SDS011;29783;52.504;13.478;2022-08-25T01:26:29;12.57;;;6.60;;
44120;SDS011;29783;52.504;13.478;2022-08-25T01:28:57;22.48;;;7.20;;
44120;SDS011;29783;52.504;13.478;2022-08-25T01:31:42;16.30;;;6.07;;
44120;SDS011;29783;52.504;13.478;2022-08-25T01:34:09;22.55;;;6.50;;
44120;SDS011;29783;52.504;13.478;2022-08-25T01:36:40;15.95;;;7.15;;
44120;SDS011;29783;52.504;13.478;2022-08-25T01:39:07;13.90;;;6.32;;
44120;SDS011;29783;52.504;13.478;2022-08-25T01:44:15;14.73;;;6.65;;
44120;SDS011;29783;52.504;13.478;2022-08-25T01:46:41;15.50;;;6.75;;
44120;SDS011;29783;52.504;13.478;2022-08-25T01:49:08;17.65;;;6.65;;
44120;SDS011;29783;52.504;13.478;2022-08-25T01:51:39;14.02;;;6.20;;
44120;SDS011;29783;52.504;13.478;2022-08-25T01:54:08;16.63;;;6.95;;
44120;SDS011;29783;52.504;13.478;2022-08-25T01:56:34;13.52;;;6.13;;
44120;SDS011;29783;52.504;13.478;2022-08-25T01:59:09;13.02;;;6.85;;
44120;SDS011;29783;52.504;13.478;2022-08-25T02:01:35;15.40;;;7.22;;
44120;SDS011;29783;52.504;13.478;2022-08-25T02:04:01;13.15;;;6.75;;
44120;SDS011;29783;52.504;13.478;2022-08-25T02:06:29;12.57;;;7.30;;
44120;SDS011;29783;52.504;13.478;2022-08-25T02:08:58;16.45;;;6.72;;
44120;SDS011;29783;52.504;13.478;2022-08-25T02:11:36;16.77;;;8.13;;
44120;SDS011;29783;52.504;13.478;2022-08-25T02:14:03;16.90;;;7.22;;
44120;SDS011;29783;52.504;13.478;2022-08-25T02:16:30;21.58;;;8.13;;
44120;SDS011;29783;52.504;13.478;2022-08-25T02:18:59;21.40;;;7.13;;
44120;SDS011;29783;52.504;13.478;2022-08-25T02:21:25;16.95;;;6.90;;
44120;SDS011;29783;52.504;13.478;2022-08-25T02:23:52;17.23;;;6.93;;
44120;SDS011;29783;52.504;13.478;2022-08-25T02:26:18;17.52;;;8.05;;
44120;SDS011;29783;52.504;13.478;2022-08-25T02:28:45;15.68;;;7.82;;
44120;SDS011;29783;52.504;13.478;2022-08-25T02:31:12;14.75;;;7.18;;
44120;SDS011;29783;52.504;13.478;2022-08-25T02:33:39;14.35;;;7.00;;
44120;SDS011;29783;52.504;13.478;2022-08-25T02:36:05;11.23;;;7.30;;
44120;SDS011;29783;52.504;13.478;2022-08-25T02:38:31;21.73;;;8.10;;
44120;SDS011;29783;52.504;13.478;2022-08-25T02:40:57;14.13;;;8.23;;
44120;SDS011;29783;52.504;13.478;2022-08-25T02:43:25;22.45;;;7.82;;
44120;SDS011;29783;52.504;13.478;2022-08-25T02:45:52;14.43;;;7.63;;
44120;SDS011;29783;52.504;13.478;2022-08-25T02:48:19;18.33;;;8.35;;
44120;SDS011;29783;52.504;13.478;2022-08-25T02:50:49;15.43;;;8.23;;
44120;SDS011;29783;52.504;13.478;2022-08-25T02:53:18;11.85;;;8.38;;
44120;SDS011;29783;52.504;13.478;2022-08-25T02:55:45;13.93;;;8.40;;
44120;SDS011;29783;52.504;13.478;2022-08-25T02:58:12;15.18;;;7.78;;
44120;SDS011;29783;52.504;13.478;2022-08-25T03:00:38;14.88;;;7.93;;
44120;SDS011;29783;52.504;13.478;2022-08-25T03:03:04;16.70;;;8.13;;
44120;SDS011;29783;52.504;13.478;2022-08-25T03:05:30;17.80;;;8.05;;
44120;SDS011;29783;52.504;13.478;2022-08-25T03:07:57;18.33;;;8.20;;
44120;SDS011;29783;52.504;13.478;2022-08-25T03:10:23;14.57;;;8.27;;
44120;SDS011;29783;52.504;13.478;2022-08-25T03:12:48;15.77;;;8.27;;
44120;SDS011;29783;52.504;13.478;2022-08-25T03:15:15;17.58;;;8.48;;
44120;SDS011;29783;52.504;13.478;2022-08-25T03:17:42;20.60;;;9.05;;
44120;SDS011;29783;52.504;13.478;2022-08-25T03:20:09;16.02;;;9.05;;
44120;SDS011;29783;52.504;13.478;2022-08-25T03:22:35;17.00;;;8.35;;
44120;SDS011;29783;52.504;13.478;2022-08-25T03:25:01;11.48;;;8.10;;
44120;SDS011;29783;52.504;13.478;2022-08-25T03:27:46;13.60;;;9.20;;
44120;SDS011;29783;52.504;13.478;2022-08-25T03:30:13;23.00;;;8.27;;
44120;SDS011;29783;52.504;13.478;2022-08-25T03:32:40;17.05;;;9.07;;
44120;SDS011;29783;52.504;13.478;2022-08-25T03:35:06;18.27;;;9.27;;
44120;SDS011;29783;52.504;13.478;2022-08-25T03:37:32;17.00;;;9.15;;
44120;SDS011;29783;52.504;13.478;2022-08-25T03:39:58;25.73;;;10.18;;
44120;SDS011;29783;52.504;13.478;2022-08-25T03:42:25;25.40;;;9.73;;
44120;SDS011;29783;52.504;13.478;2022-08-25T03:44:56;20.85;;;9.48;;
44120;SDS011;29783;52.504;13.478;2022-08-25T03:47:32;22.92;;;10.73;;
44120;SDS011;29783;52.504;13.478;2022-08-25T03:49:58;19.60;;;10.05;;
44120;SDS011;29783;52.504;13.478;2022-08-25T03:52:24;19.92;;;10.55;;
44120;SDS011;29783;52.504;13.478;2022-08-25T03:54:50;17.70;;;10.48;;
44120;SDS011;29783;52.504;13.478;2022-08-25T03:57:16;26.35;;;11.30;;
44120;SDS011;29783;52.504;13.478;2022-08-25T03:59:44;18.08;;;10.77;;
44120;SDS011;29783;52.504;13.478;2022-08-25T04:02:10;23.08;;;11.00;;
44120;SDS011;29783;52.504;13.478;2022-08-25T04:04:36;18.85;;;10.65;;
44120;SDS011;29783;52.504;13.478;2022-08-25T04:07:01;16.65;;;9.73;;
44120;SDS011;29783;52.504;13.478;2022-08-25T04:09:27;21.58;;;10.57;;
44120;SDS011;29783;52.504;13.478;2022-08-25T04:11:53;24.25;;;11.10;;
44120;SDS011;29783;52.504;13.478;2022-08-25T04:14:19;24.15;;;11.73;;
44120;SDS011;29783;52.504;13.478;2022-08-25T04:16:45;19.35;;;11.05;;
44120;SDS011;29783;52.504;13.478;2022-08-25T04:19:11;23.27;;;12.85;;
44120;SDS011;29783;52.504;13.478;2022-08-25T04:21:38;17.38;;;11.20;;
44120;SDS011;29783;52.504;13.478;2022-08-25T04:24:05;24.02;;;13.68;;
44120;SDS011;29783;52.504;13.478;2022-08-25T04:26:34;24.08;;;13.80;;
44120;SDS011;29783;52.504;13.478;2022-08-25T04:29:03;22.83;;;13.82;;
44120;SDS011;29783;52.504;13.478;2022-08-25T04:31:30;28.85;;;15.00;;
44120;SDS011;29783;52.504;13.478;2022-08-25T04:33:57;26.48;;;15.88;;
44120;SDS011;29783;52.504;13.478;2022-08-25T04:36:25;34.22;;;17.25;;
44120;SDS011;29783;52.504;13.478;2022-08-25T04:38:51;25.65;;;16.98;;
44120;SDS011;29783;52.504;13.478;2022-08-25T04:41:18;31.80;;;21.55;;
44120;SDS011;29783;52.504;13.478;2022-08-25T04:43:46;38.72;;;21.77;;
44120;SDS011;29783;52.504;13.478;2022-08-25T04:46:19;29.38;;;21.50;;
44120;SDS011;29783;52.504;13.478;2022-08-25T04:48:47;34.42;;;22.55;;
44120;SDS011;29783;52.504;13.478;2022-08-25T04:51:15;37.97;;;24.58;;
44120;SDS011;29783;52.504;13.478;2022-08-25T04:53:43;35.42;;;23.73;;
44120;SDS011;29783;52.504;13.478;2022-08-25T04:56:13;31.50;;;22.67;;
44120;SDS011;29783;52.504;13.478;2022-08-25T04:58:41;35.92;;;22.45;;
44120;SDS011;29783;52.504;13.478;2022-08-25T05:01:08;29.65;;;20.95;;
44120;SDS011;29783;52.504;13.478;2022-08-25T05:03:36;31.45;;;21.52;;
44120;SDS011;29783;52.504;13.478;2022-08-25T05:06:02;30.67;;;19.63;;
44120;SDS011;29783;52.504;13.478;2022-08-25T05:08:29;33.88;;;19.98;;
44120;SDS011;29783;52.504;13.478;2022-08-25T05:10:55;23.30;;;17.75;;
44120;SDS011;29783;52.504;13.478;2022-08-25T05:13:24;28.42;;;16.92;;
44120;SDS011;29783;52.504;13.478;2022-08-25T05:15:53;19.08;;;16.45;;
44120;SDS011;29783;52.504;13.478;2022-08-25T05:18:21;24.30;;;16.05;;
44120;SDS011;29783;52.504;13.478;2022-08-25T05:20:49;26.48;;;15.77;;
44120;SDS011;29783;52.504;13.478;2022-08-25T05:23:18;18.00;;;15.18;;
44120;SDS011;29783;52.504;13.478;2022-08-25T05:25:45;24.55;;;17.73;;
44120;SDS011;29783;52.504;13.478;2022-08-25T05:28:11;31.73;;;17.83;;
44120;SDS011;29783;52.504;13.478;2022-08-25T05:30:39;31.83;;;16.48;;
44120;SDS011;29783;52.504;13.478;2022-08-25T05:33:06;32.35;;;15.30;;
44120;SDS011;29783;52.504;13.478;2022-08-25T05:35:32;19.75;;;13.68;;
44120;SDS011;29783;52.504;13.478;2022-08-25T05:37:59;18.65;;;13.48;;
44120;SDS011;29783;52.504;13.478;2022-08-25T05:40:26;21.23;;;13.68;;
44120;SDS011;29783;52.504;13.478;2022-08-25T05:42:52;20.00;;;12.80;;
44120;SDS011;29783;52.504;13.478;2022-08-25T05:45:18;17.63;;;10.93;;
44120;SDS011;29783;52.504;13.478;2022-08-25T05:47:44;18.33;;;11.15;;
44120;SDS011;29783;52.504;13.478;2022-08-25T05:50:10;21.25;;;11.32;;
44120;SDS011;29783;52.504;13.478;2022-08-25T05:52:36;21.17;;;13.55;;
44120;SDS011;29783;52.504;13.478;2022-08-25T05:55:02;18.55;;;12.15;;
44120;SDS011;29783;52.504;13.478;2022-08-25T05:57:29;18.52;;;12.88;;
44120;SDS011;29783;52.504;13.478;2022-08-25T05:59:57;20.80;;;12.90;;
44120;SDS011;29783;52.504;13.478;2022-08-25T06:02:22;18.70;;;12.65;;
44120;SDS011;29783;52.504;13.478;2022-08-25T06:05:12;20.13;;;12.77;;
44120;SDS011;29783;52.504;13.478;2022-08-25T06:07:41;22.30;;;12.90;;
44120;SDS011;29783;52.504;13.478;2022-08-25T06:10:07;17.60;;;13.82;;
44120;SDS011;29783;52.504;13.478;2022-08-25T06:12:37;19.48;;;13.80;;
44120;SDS011;29783;52.504;13.478;2022-08-25T06:15:06;22.33;;;14.55;;
44120;SDS011;29783;52.504;13.478;2022-08-25T06:17:34;22.35;;;13.93;;
44120;SDS011;29783;52.504;13.478;2022-08-25T06:20:05;16.95;;;12.55;;
44120;SDS011;29783;52.504;13.478;2022-08-25T06:22:35;20.00;;;12.73;;
44120;SDS011;29783;52.504;13.478;2022-08-25T06:25:02;21.95;;;13.52;;
44120;SDS011;29783;52.504;13.478;2022-08-25T06:27:28;18.55;;;13.32;;
44120;SDS011;29783;52.504;13.478;2022-08-25T06:29:54;21.05;;;13.32;;
44120;SDS011;29783;52.504;13.478;2022-08-25T06:32:20;22.23;;;14.45;;
44120;SDS011;29783;52.504;13.478;2022-08-25T06:34:46;17.55;;;12.38;;
44120;SDS011;29783;52.504;13.478;2022-08-25T06:37:16;16.73;;;13.27;;
44120;SDS011;29783;52.504;13.478;2022-08-25T06:39:45;17.83;;;12.88;;
44120;SDS011;29783;52.504;13.478;2022-08-25T06:42:11;19.40;;;13.43;;
44120;SDS011;29783;52.504;13.478;2022-08-25T06:44:40;18.40;;;13.52;;
44120;SDS011;29783;52.504;13.478;2022-08-25T06:47:07;17.77;;;13.88;;
44120;SDS011;29783;52.504;13.478;2022-08-25T06:49:33;17.23;;;12.00;;
44120;SDS011;29783;52.504;13.478;2022-08-25T06:51:59;21.15;;;14.63;;
44120;SDS011;29783;52.504;13.478;2022-08-25T06:54:26;19.52;;;12.27;;
44120;SDS011;29783;52.504;13.478;2022-08-25T06:56:52;17.10;;;12.02;;
44120;SDS011;29783;52.504;13.478;2022-08-25T06:59:18;23.63;;;14.43;;
44120;SDS011;29783;52.504;13.478;2022-08-25T07:01:44;19.90;;;13.27;;
44120;SDS011;29783;52.504;13.478;2022-08-25T07:04:10;26.17;;;15.95;;
44120;SDS011;29783;52.504;13.478;2022-08-25T07:06:35;22.35;;;14.32;;
44120;SDS011;29783;52.504;13.478;2022-08-25T07:09:05;16.27;;;12.73;;
44120;SDS011;29783;52.504;13.478;2022-08-25T07:11:32;28.60;;;13.75;;
44120;SDS011;29783;52.504;13.478;2022-08-25T07:14:02;20.95;;;14.75;;
44120;SDS011;29783;52.504;13.478;2022-08-25T07:16:29;21.70;;;13.55;;
44120;SDS011;29783;52.504;13.478;2022-08-25T07:18:55;23.15;;;13.73;;
44120;SDS011;29783;52.504;13.478;2022-08-25T07:21:23;22.10;;;13.48;;
44120;SDS011;29783;52.504;13.478;2022-08-25T07:23:50;24.67;;;13.27;;
44120;SDS011;29783;52.504;13.478;2022-08-25T07:26:20;23.55;;;16.15;;
44120;SDS011;29783;52.504;13.478;2022-08-25T07:28:49;25.53;;;14.80;;
44120;SDS011;29783;52.504;13.478;2022-08-25T07:31:15;27.65;;;15.77;;
44120;SDS011;29783;52.504;13.478;2022-08-25T07:33:41;28.02;;;16.98;;
44120;SDS011;29783;52.504;13.478;2022-08-25T07:36:28;21.88;;;13.88;;
44120;SDS011;29783;52.504;13.478;2022-08-25T07:38:55;23.13;;;15.23;;
44120;SDS011;29783;52.504;13.478;2022-08-25T07:41:35;33.15;;;16.40;;
44120;SDS011;29783;52.504;13.478;2022-08-25T07:44:03;25.83;;;15.57;;
44120;SDS011;29783;52.504;13.478;2022-08-25T07:46:29;29.73;;;15.57;;
44120;SDS011;29783;52.504;13.478;2022-08-25T07:48:55;34.33;;;15.27;;
44120;SDS011;29783;52.504;13.478;2022-08-25T07:51:21;27.17;;;15.32;;
44120;SDS011;29783;52.504;13.478;2022-08-25T07:53:47;27.98;;;16.02;;
44120;SDS011;29783;52.504;13.478;2022-08-25T07:56:13;30.00;;;16.40;;
44120;SDS011;29783;52.504;13.478;2022-08-25T07:58:40;30.30;;;15.77;;
44120;SDS011;29783;52.504;13.478;2022-08-25T08:01:11;29.80;;;16.60;;
44120;SDS011;29783;52.504;13.478;2022-08-25T08:03:48;29.58;;;16.02;;
44120;SDS011;29783;52.504;13.478;2022-08-25T08:06:14;30.75;;;18.77;;
44120;SDS011;29783;52.504;13.478;2022-08-25T08:08:42;26.58;;;15.55;;
44120;SDS011;29783;52.504;13.478;2022-08-25T08:11:17;30.50;;;16.60;;
44120;SDS011;29783;52.504;13.478;2022-08-25T08:13:45;23.85;;;14.32;;
44120;SDS011;29783;52.504;13.478;2022-08-25T08:16:13;30.70;;;15.40;;
44120;SDS011;29783;52.504;13.478;2022-08-25T08:18:41;30.05;;;15.05;;
44120;SDS011;29783;52.504;13.478;2022-08-25T08:21:12;28.20;;;14.40;;
44120;SDS011;29783;52.504;13.478;2022-08-25T08:23:38;23.70;;;14.38;;
44120;SDS011;29783;52.504;13.478;2022-08-25T08:26:03;22.35;;;13.82;;
44120;SDS011;29783;52.504;13.478;2022-08-25T08:28:29;19.17;;;13.68;;
44120;SDS011;29783;52.504;13.478;2022-08-25T08:30:55;19.90;;;11.80;;
44120;SDS011;29783;52.504;13.478;2022-08-25T08:33:22;15.18;;;10.52;;
44120;SDS011;29783;52.504;13.478;2022-08-25T08:35:58;20.90;;;10.95;;
44120;SDS011;29783;52.504;13.478;2022-08-25T08:38:28;22.73;;;10.85;;
44120;SDS011;29783;52.504;13.478;2022-08-25T08:43:48;20.17;;;9.30;;
44120;SDS011;29783;52.504;13.478;2022-08-25T08:46:20;15.48;;;9.32;;
44120;SDS011;29783;52.504;13.478;2022-08-25T08:54:03;14.65;;;8.23;;
44120;SDS011;29783;52.504;13.478;2022-08-25T08:56:49;18.67;;;7.75;;
44120;SDS011;29783;52.504;13.478;2022-08-25T08:59:22;14.82;;;7.68;;
44120;SDS011;29783;52.504;13.478;2022-08-25T09:01:52;18.55;;;8.00;;
44120;SDS011;29783;52.504;13.478;2022-08-25T09:07:06;17.95;;;7.43;;
44120;SDS011;29783;52.504;13.478;2022-08-25T09:09:37;20.37;;;7.63;;
44120;SDS011;29783;52.504;13.478;2022-08-25T09:15:11;17.45;;;6.53;;
44120;SDS011;29783;52.504;13.478;2022-08-25T09:18:08;11.43;;;6.88;;
44120;SDS011;29783;52.504;13.478;2022-08-25T09:20:58;17.25;;;6.38;;
44120;SDS011;29783;52.504;13.478;2022-08-25T09:23:34;10.88;;;5.40;;
44120;SDS011;29783;52.504;13.478;2022-08-25T09:26:46;15.38;;;6.10;;
44120;SDS011;29783;52.504;13.478;2022-08-25T09:29:45;17.73;;;6.50;;
44120;SDS011;29783;52.504;13.478;2022-08-25T09:32:19;8.75;;;5.32;;
44120;SDS011;29783;52.504;13.478;2022-08-25T09:34:46;8.50;;;4.88;;
44120;SDS011;29783;52.504;13.478;2022-08-25T09:37:22;12.07;;;5.60;;
44120;SDS011;29783;52.504;13.478;2022-08-25T09:39:48;9.45;;;5.30;;
44120;SDS011;29783;52.504;13.478;2022-08-25T09:42:14;14.18;;;5.20;;
44120;SDS011;29783;52.504;13.478;2022-08-25T09:44:44;10.27;;;6.15;;
44120;SDS011;29783;52.504;13.478;2022-08-25T09:49:59;13.48;;;5.57;;
44120;SDS011;29783;52.504;13.478;2022-08-25T10:00:18;8.63;;;5.07;;
44120;SDS011;29783;52.504;13.478;2022-08-25T10:03:01;13.32;;;4.75;;
44120;SDS011;29783;52.504;13.478;2022-08-25T10:05:56;10.32;;;5.35;;
44120;SDS011;29783;52.504;13.478;2022-08-25T10:11:06;13.13;;;4.75;;
44120;SDS011;29783;52.504;13.478;2022-08-25T10:13:47;12.93;;;4.72;;
44120;SDS011;29783;52.504;13.478;2022-08-25T10:21:28;12.50;;;5.20;;
44120;SDS011;29783;52.504;13.478;2022-08-25T10:23:54;10.82;;;4.90;;
44120;SDS011;29783;52.504;13.478;2022-08-25T10:26:36;12.15;;;4.53;;
44120;SDS011;29783;52.504;13.478;2022-08-25T10:29:10;12.65;;;6.18;;
44120;SDS011;29783;52.504;13.478;2022-08-25T10:31:56;14.45;;;5.47;;
44120;SDS011;29783;52.504;13.478;2022-08-25T10:45:14;9.45;;;3.80;;
44120;SDS011;29783;52.504;13.478;2022-08-25T10:56:21;11.27;;;3.80;;
44120;SDS011;29783;52.504;13.478;2022-08-25T11:04:21;16.67;;;4.13;;
44120;SDS011;29783;52.504;13.478;2022-08-25T11:07:13;11.25;;;3.78;;
44120;SDS011;29783;52.504;13.478;2022-08-25T11:09:51;9.90;;;4.10;;
44120;SDS011;29783;52.504;13.478;2022-08-25T11:12:28;14.63;;;4.32;;
44120;SDS011;29783;52.504;13.478;2022-08-25T11:15:00;15.02;;;4.28;;
44120;SDS011;29783;52.504;13.478;2022-08-25T11:17:39;13.32;;;4.28;;
44120;SDS011;29783;52.504;13.478;2022-08-25T11:20:14;15.93;;;4.35;;
44120;SDS011;29783;52.504;13.478;2022-08-25T11:22:53;15.20;;;4.65;;
44120;SDS011;29783;52.504;13.478;2022-08-25T11:25:44;12.82;;;4.13;;
44120;SDS011;29783;52.504;13.478;2022-08-25T11:28:20;12.85;;;4.40;;
44120;SDS011;29783;52.504;13.478;2022-08-25T11:30:54;14.00;;;3.90;;
44120;SDS011;29783;52.504;13.478;2022-08-25T11:33:22;26.77;;;4.53;;
44120;SDS011;29783;52.504;13.478;2022-08-25T11:35:58;18.75;;;4.38;;
44120;SDS011;29783;52.504;13.478;2022-08-25T11:41:20;22.67;;;4.47;;
44120;SDS011;29783;52.504;13.478;2022-08-25T11:50:22;20.95;;;4.20;;
44120;SDS011;29783;52.504;13.478;2022-08-25T11:52:51;20.08;;;4.40;;
44120;SDS011;29783;52.504;13.478;2022-08-25T11:55:21;16.88;;;4.25;;
44120;SDS011;29783;52.504;13.478;2022-08-25T12:01:04;12.38;;;3.80;;
44120;SDS011;29783;52.504;13.478;2022-08-25T12:06:20;17.35;;;4.78;;
44120;SDS011;29783;52.504;13.478;2022-08-25T12:30:18;19.05;;;4.68;;
44120;SDS011;29783;52.504;13.478;2022-08-25T12:38:33;12.05;;;3.78;;
44120;SDS011;29783;52.504;13.478;2022-08-25T12:41:13;17.23;;;4.60;;
44120;SDS011;29783;52.504;13.478;2022-08-25T12:43:46;11.85;;;3.58;;
44120;SDS011;29783;52.504;13.478;2022-08-25T12:59:18;13.80;;;4.20;;
44120;SDS011;29783;52.504;13.478;2022-08-25T13:10:56;7.93;;;3.30;;
44120;SDS011;29783;52.504;13.478;2022-08-25T13:16:28;12.68;;;3.80;;
44120;SDS011;29783;52.504;13.478;2022-08-25T13:18:55;24.40;;;3.60;;
44120;SDS011;29783;52.504;13.478;2022-08-25T13:23:53;17.50;;;3.78;;
44120;SDS011;29783;52.504;13.478;2022-08-25T13:26:25;19.42;;;4.03;;
44120;SDS011;29783;52.504;13.478;2022-08-25T13:28:56;21.43;;;3.93;;
44120;SDS011;29783;52.504;13.478;2022-08-25T13:31:23;13.35;;;3.78;;
44120;SDS011;29783;52.504;13.478;2022-08-25T13:33:54;13.88;;;3.80;;
44120;SDS011;29783;52.504;13.478;2022-08-25T13:36:24;20.05;;;3.47;;
44120;SDS011;29783;52.504;13.478;2022-08-25T13:39:31;15.40;;;4.03;;
44120;SDS011;29783;52.504;13.478;2022-08-25T13:41:57;21.63;;;4.03;;
44120;SDS011;29783;52.504;13.478;2022-08-25T13:44:25;17.45;;;3.92;;
44120;SDS011;29783;52.504;13.478;2022-08-25T13:47:09;18.20;;;3.58;;
44120;SDS011;29783;52.504;13.478;2022-08-25T13:49:37;11.23;;;3.58;;
44120;SDS011;29783;52.504;13.478;2022-08-25T13:52:05;18.35;;;3.97;;
44120;SDS011;29783;52.504;13.478;2022-08-25T13:57:12;16.55;;;3.80;;
44120;SDS011;29783;52.504;13.478;2022-08-25T13:59:47;17.10;;;3.78;;
44120;SDS011;29783;52.504;13.478;2022-08-25T14:02:25;16.27;;;3.80;;
44120;SDS011;29783;52.504;13.478;2022-08-25T14:05:06;16.33;;;3.78;;
44120;SDS011;29783;52.504;13.478;2022-08-25T14:07:33;19.13;;;3.85;;
44120;SDS011;29783;52.504;13.478;2022-08-25T14:10:00;15.20;;;3.50;;
44120;SDS011;29783;52.504;13.478;2022-08-25T14:12:33;12.70;;;3.80;;
44120;SDS011;29783;52.504;13.478;2022-08-25T14:15:12;14.55;;;3.45;;
44120;SDS011;29783;52.504;13.478;2022-08-25T14:20:36;15.52;;;3.50;;
44120;SDS011;29783;52.504;13.478;2022-08-25T14:23:10;18.90;;;3.53;;
44120;SDS011;29783;52.504;13.478;2022-08-25T14:25:38;14.38;;;3.20;;
44120;SDS011;29783;52.504;13.478;2022-08-25T14:28:05;17.63;;;3.45;;
44120;SDS011;29783;52.504;13.478;2022-08-25T14:30:39;14.23;;;4.10;;
44120;SDS011;29783;52.504;13.478;2022-08-25T14:33:14;17.77;;;3.65;;
44120;SDS011;29783;52.504;13.478;2022-08-25T14:35:42;17.67;;;3.25;;
44120;SDS011;29783;52.504;13.478;2022-08-25T14:38:10;17.02;;;3.78;;
44120;SDS011;29783;52.504;13.478;2022-08-25T14:40:36;12.38;;;3.55;;
44120;SDS011;29783;52.504;13.478;2022-08-25T14:43:03;19.63;;;3.60;;
44120;SDS011;29783;52.504;13.478;2022-08-25T14:45:29;26.85;;;4.40;;
44120;SDS011;29783;52.504;13.478;2022-08-25T14:47:55;20.25;;;3.70;;
44120;SDS011;29783;52.504;13.478;2022-08-25T14:50:28;15.93;;;3.72;;
44120;SDS011;29783;52.504;13.478;2022-08-25T14:52:53;13.43;;;3.63;;
44120;SDS011;29783;52.504;13.478;2022-08-25T14:55:19;24.77;;;4.32;;
44120;SDS011;29783;52.504;13.478;2022-08-25T14:57:45;20.63;;;3.80;;
44120;SDS011;29783;52.504;13.478;2022-08-25T15:00:10;18.55;;;3.20;;
44120;SDS011;29783;52.504;13.478;2022-08-25T15:02:38;21.27;;;3.20;;
44120;SDS011;29783;52.504;13.478;2022-08-25T15:05:06;18.23;;;3.75;;
44120;SDS011;29783;52.504;13.478;2022-08-25T15:07:35;14.40;;;3.65;;
44120;SDS011;29783;52.504;13.478;2022-08-25T15:10:20;25.20;;;4.07;;
44120;SDS011;29783;52.504;13.478;2022-08-25T15:12:46;17.88;;;4.13;;
44120;SDS011;29783;52.504;13.478;2022-08-25T15:15:11;13.05;;;3.40;;
44120;SDS011;29783;52.504;13.478;2022-08-25T15:17:38;14.55;;;4.05;;
44120;SDS011;29783;52.504;13.478;2022-08-25T15:20:05;24.92;;;4.63;;
44120;SDS011;29783;52.504;13.478;2022-08-25T15:22:32;19.15;;;3.63;;
44120;SDS011;29783;52.504;13.478;2022-08-25T15:24:58;26.15;;;3.67;;
44120;SDS011;29783;52.504;13.478;2022-08-25T15:27:23;13.35;;;3.53;;
44120;SDS011;29783;52.504;13.478;2022-08-25T15:29:49;13.57;;;3.75;;
44120;SDS011;29783;52.504;13.478;2022-08-25T15:32:14;23.00;;;3.40;;
44120;SDS011;29783;52.504;13.478;2022-08-25T15:34:41;19.60;;;3.50;;
44120;SDS011;29783;52.504;13.478;2022-08-25T15:37:07;18.55;;;3.88;;
44120;SDS011;29783;52.504;13.478;2022-08-25T15:39:36;18.05;;;3.67;;
44120;SDS011;29783;52.504;13.478;2022-08-25T15:42:04;21.77;;;3.92;;
44120;SDS011;29783;52.504;13.478;2022-08-25T15:44:30;27.23;;;4.00;;
44120;SDS011;29783;52.504;13.478;2022-08-25T15:46:56;16.45;;;3.75;;
44120;SDS011;29783;52.504;13.478;2022-08-25T15:49:23;17.90;;;3.55;;
44120;SDS011;29783;52.504;13.478;2022-08-25T15:51:50;21.58;;;3.55;;
44120;SDS011;29783;52.504;13.478;2022-08-25T15:54:16;16.92;;;3.55;;
44120;SDS011;29783;52.504;13.478;2022-08-25T15:56:42;25.30;;;4.60;;
44120;SDS011;29783;52.504;13.478;2022-08-25T15:59:08;20.67;;;4.50;;
44120;SDS011;29783;52.504;13.478;2022-08-25T16:01:34;31.88;;;3.92;;
44120;SDS011;29783;52.504;13.478;2022-08-25T16:04:01;22.95;;;4.20;;
44120;SDS011;29783;52.504;13.478;2022-08-25T16:06:26;19.13;;;4.35;;
44120;SDS011;29783;52.504;13.478;2022-08-25T16:08:52;23.95;;;4.20;;
44120;SDS011;29783;52.504;13.478;2022-08-25T16:11:22;23.67;;;4.53;;
44120;SDS011;29783;52.504;13.478;2022-08-25T16:13:53;22.70;;;3.80;;
44120;SDS011;29783;52.504;13.478;2022-08-25T16:16:21;20.50;;;3.75;;
44120;SDS011;29783;52.504;13.478;2022-08-25T16:18:48;22.13;;;3.83;;
44120;SDS011;29783;52.504;13.478;2022-08-25T16:21:16;20.48;;;3.60;;
44120;SDS011;29783;52.504;13.478;2022-08-25T16:23:43;32.03;;;4.32;;
44120;SDS011;29783;52.504;13.478;2022-08-25T16:26:09;21.77;;;3.97;;
44120;SDS011;29783;52.504;13.478;2022-08-25T16:28:36;27.27;;;4.05;;
44120;SDS011;29783;52.504;13.478;2022-08-25T16:31:03;21.73;;;4.30;;
44120;SDS011;29783;52.504;13.478;2022-08-25T16:33:29;21.98;;;5.10;;
44120;SDS011;29783;52.504;13.478;2022-08-25T16:36:17;29.35;;;4.32;;
44120;SDS011;29783;52.504;13.478;2022-08-25T16:38:45;23.30;;;4.25;;
44120;SDS011;29783;52.504;13.478;2022-08-25T16:41:12;24.70;;;4.30;;
44120;SDS011;29783;52.504;13.478;2022-08-25T16:43:46;25.33;;;4.25;;
44120;SDS011;29783;52.504;13.478;2022-08-25T16:46:14;20.75;;;4.95;;
44120;SDS011;29783;52.504;13.478;2022-08-25T16:48:41;24.70;;;4.05;;